Pagrindinis puslapis
METAR-TAF:

METAR-TAF

Oro uostai :

Damaskas, Sirija

platuma: 33-25N, ilguma: 036-31E, Aukštis: 608 m

Dabartinis oras

Ataskaita buvo paskelbta 21 minutes, ne 05:00 UTC
Vėjas 13 kt iš Vakarų/Pietvakarių
Temperatūra 18°C
Drėgmė 49%
Slėgis 1016 hPa
Matomumas 10 km arba daugiau
nėra debesų žemiau 1500 m ir nėra kamuolinių lietaus debesų

METAR: OSDI 290500Z 24013KT CAVOK 18/07 Q1016

Laikas: 08:21 (05:21 UTC)

Prognozė

Prognozė galioja nuo 29 metu 00 UTC su 30 metu 06 UTC
Vėjas 15 kt iš Pietvakarių
Matomumas 10 km arba daugiau
nėra debesų žemiau 1500 m ir nėra kamuolinių lietaus debesų
Laikinai
nuo 29 metu 09 UTC su 29 metu 18 UTC
Vėjas 15 kt iš Vakarų su gūsio iki 25 kt
Matomumas 10 km arba daugiau
Mažai debesys ne aukštis 3000 ft

TAF: OSDI 2900/3006 22015KT CAVOK TEMPO 2909/2918 28015G25KT 9999 FEW030

Orai ataskaitas ir orų prognozės (METAR, TAF).

turimą stotys yra geltonos ir raudonos taškus žemėlapyje.

Perkelti pele per norėdami pamatyti stoties vardą.

Tada spustelėkite, norėdami matyti oro stebėjimo ir prognozės.

Norėdami pakeisti žemėlapį: spustelėkite ant žalios mygtukų su juodo kryžiaus žemyn,; žalią mygtuką su brūkšneliu, jei norite nutolinti; arba žalių rodyklių gretimoms žemėlapius.


METAR-TAF: